sensor_id;sensor_type;location;lat;lon;timestamp;pressure;altitude;pressure_sealevel;temperature;humidity
46778;BME280;32536;47.128;8.746;2023-02-16T00:01:14;92617.88;;;6.28;46.07
46778;BME280;32536;47.128;8.746;2023-02-16T00:03:41;92620.00;;;6.19;46.18
46778;BME280;32536;47.128;8.746;2023-02-16T00:06:08;92619.88;;;6.12;45.98
46778;BME280;32536;47.128;8.746;2023-02-16T00:08:42;92621.00;;;6.11;46.40
46778;BME280;32536;47.128;8.746;2023-02-16T00:14:16;92616.66;;;6.02;46.56
46778;BME280;32536;47.128;8.746;2023-02-16T00:16:44;92621.56;;;6.00;46.29
46778;BME280;32536;47.128;8.746;2023-02-16T00:19:28;92625.31;;;5.99;46.56
46778;BME280;32536;47.128;8.746;2023-02-16T00:21:58;92625.47;;;6.06;46.19
46778;BME280;32536;47.128;8.746;2023-02-16T00:24:28;92627.06;;;6.11;46.01
46778;BME280;32536;47.128;8.746;2023-02-16T00:26:56;92628.69;;;6.16;46.43
46778;BME280;32536;47.128;8.746;2023-02-16T00:29:28;92623.66;;;6.11;46.27
46778;BME280;32536;47.128;8.746;2023-02-16T00:31:58;92620.16;;;6.06;46.55
46778;BME280;32536;47.128;8.746;2023-02-16T00:34:36;92616.66;;;6.02;46.09
46778;BME280;32536;47.128;8.746;2023-02-16T00:37:08;92610.47;;;5.98;46.42
46778;BME280;32536;47.128;8.746;2023-02-16T00:39:38;92616.41;;;5.91;46.42
46778;BME280;32536;47.128;8.746;2023-02-16T00:42:20;92610.34;;;5.91;46.65
46778;BME280;32536;47.128;8.746;2023-02-16T00:44:53;92619.50;;;5.93;46.61
46778;BME280;32536;47.128;8.746;2023-02-16T00:49:52;92615.66;;;5.91;46.73
46778;BME280;32536;47.128;8.746;2023-02-16T00:52:33;92613.31;;;5.89;46.12
46778;BME280;32536;47.128;8.746;2023-02-16T00:55:05;92611.81;;;5.88;46.61
46778;BME280;32536;47.128;8.746;2023-02-16T00:57:37;92619.72;;;5.85;46.32
46778;BME280;32536;47.128;8.746;2023-02-16T01:00:31;92620.56;;;5.89;46.32
46778;BME280;32536;47.128;8.746;2023-02-16T01:03:03;92615.91;;;5.86;46.34
46778;BME280;32536;47.128;8.746;2023-02-16T01:05:31;92624.75;;;5.90;46.67
46778;BME280;32536;47.128;8.746;2023-02-16T01:07:58;92631.13;;;5.85;46.41
46778;BME280;32536;47.128;8.746;2023-02-16T01:10:44;92625.38;;;5.83;46.27
46778;BME280;32536;47.128;8.746;2023-02-16T01:13:30;92631.81;;;5.82;46.50
46778;BME280;32536;47.128;8.746;2023-02-16T01:16:00;92640.13;;;5.81;46.50
46778;BME280;32536;47.128;8.746;2023-02-16T01:18:27;92634.13;;;5.84;46.35
46778;BME280;32536;47.128;8.746;2023-02-16T01:20:54;92640.28;;;5.88;46.37
46778;BME280;32536;47.128;8.746;2023-02-16T01:23:20;92637.56;;;5.84;46.16
46778;BME280;32536;47.128;8.746;2023-02-16T01:25:47;92643.22;;;5.83;46.02
46778;BME280;32536;47.128;8.746;2023-02-16T01:28:18;92635.53;;;5.77;46.28
46778;BME280;32536;47.128;8.746;2023-02-16T01:30:48;92638.44;;;5.72;46.22
46778;BME280;32536;47.128;8.746;2023-02-16T01:33:15;92637.59;;;5.68;46.21
46778;BME280;32536;47.128;8.746;2023-02-16T01:35:43;92640.97;;;5.65;46.02
46778;BME280;32536;47.128;8.746;2023-02-16T01:38:18;92646.91;;;5.58;46.13
46778;BME280;32536;47.128;8.746;2023-02-16T01:44:08;92649.31;;;5.48;46.48
46778;BME280;32536;47.128;8.746;2023-02-16T01:46:50;92645.91;;;5.47;46.40
46778;BME280;32536;47.128;8.746;2023-02-16T01:49:21;92641.00;;;5.49;46.40
46778;BME280;32536;47.128;8.746;2023-02-16T01:51:54;92644.44;;;5.50;46.28
46778;BME280;32536;47.128;8.746;2023-02-16T01:54:30;92638.00;;;5.51;46.15
46778;BME280;32536;47.128;8.746;2023-02-16T02:05:24;92629.88;;;5.43;46.30
46778;BME280;32536;47.128;8.746;2023-02-16T02:11:04;92623.72;;;5.39;46.29
46778;BME280;32536;47.128;8.746;2023-02-16T02:16:22;92619.41;;;5.51;46.17
46778;BME280;32536;47.128;8.746;2023-02-16T02:18:50;92624.88;;;5.58;46.01
46778;BME280;32536;47.128;8.746;2023-02-16T02:27:25;92618.97;;;5.49;46.27
46778;BME280;32536;47.128;8.746;2023-02-16T02:35:42;92607.38;;;5.37;46.17
46778;BME280;32536;47.128;8.746;2023-02-16T02:43:56;92615.84;;;5.27;46.22
46778;BME280;32536;47.128;8.746;2023-02-16T02:46:35;92613.28;;;5.31;46.43
46778;BME280;32536;47.128;8.746;2023-02-16T02:49:11;92616.97;;;5.26;46.61
46778;BME280;32536;47.128;8.746;2023-02-16T02:51:38;92605.84;;;5.20;46.64
46778;BME280;32536;47.128;8.746;2023-02-16T02:57:23;92618.88;;;5.25;46.29
46778;BME280;32536;47.128;8.746;2023-02-16T03:00:35;92610.47;;;5.23;46.23
46778;BME280;32536;47.128;8.746;2023-02-16T03:05:46;92612.41;;;5.07;46.70
46778;BME280;32536;47.128;8.746;2023-02-16T03:08:21;92620.00;;;5.08;46.78
46778;BME280;32536;47.128;8.746;2023-02-16T03:10:53;92618.63;;;5.15;46.65
46778;BME280;32536;47.128;8.746;2023-02-16T03:13:59;92623.75;;;5.23;46.34
46778;BME280;32536;47.128;8.746;2023-02-16T03:16:33;92611.25;;;5.24;46.48
46778;BME280;32536;47.128;8.746;2023-02-16T03:19:06;92612.78;;;5.25;46.29
46778;BME280;32536;47.128;8.746;2023-02-16T03:21:54;92607.22;;;5.30;46.57
46778;BME280;32536;47.128;8.746;2023-02-16T03:24:40;92606.78;;;5.28;46.36
46778;BME280;32536;47.128;8.746;2023-02-16T03:27:27;92602.25;;;5.28;45.83
46778;BME280;32536;47.128;8.746;2023-02-16T03:30:15;92602.66;;;5.31;46.36
46778;BME280;32536;47.128;8.746;2023-02-16T03:32:44;92599.25;;;5.30;46.02
46778;BME280;32536;47.128;8.746;2023-02-16T03:35:11;92601.09;;;5.29;45.96
46778;BME280;32536;47.128;8.746;2023-02-16T03:37:40;92606.63;;;5.21;46.26
46778;BME280;32536;47.128;8.746;2023-02-16T03:40:11;92605.00;;;5.16;46.36
46778;BME280;32536;47.128;8.746;2023-02-16T03:42:56;92604.06;;;5.08;46.54
46778;BME280;32536;47.128;8.746;2023-02-16T03:45:24;92607.09;;;5.07;46.38
46778;BME280;32536;47.128;8.746;2023-02-16T03:47:52;92607.41;;;5.05;46.77
46778;BME280;32536;47.128;8.746;2023-02-16T03:50:20;92602.44;;;5.04;47.06
46778;BME280;32536;47.128;8.746;2023-02-16T03:52:47;92597.91;;;5.04;46.72
46778;BME280;32536;47.128;8.746;2023-02-16T03:55:14;92604.34;;;5.03;46.78
46778;BME280;32536;47.128;8.746;2023-02-16T03:57:41;92595.94;;;5.01;46.50
46778;BME280;32536;47.128;8.746;2023-02-16T04:00:08;92611.13;;;5.01;46.30
46778;BME280;32536;47.128;8.746;2023-02-16T04:02:35;92606.41;;;4.94;46.49
46778;BME280;32536;47.128;8.746;2023-02-16T04:05:02;92602.38;;;4.84;46.69
46778;BME280;32536;47.128;8.746;2023-02-16T04:07:29;92607.97;;;4.79;46.91
46778;BME280;32536;47.128;8.746;2023-02-16T04:09:56;92602.56;;;4.75;46.95
46778;BME280;32536;47.128;8.746;2023-02-16T04:12:23;92596.06;;;4.73;47.17
46778;BME280;32536;47.128;8.746;2023-02-16T04:15:10;92608.72;;;4.79;47.07
46778;BME280;32536;47.128;8.746;2023-02-16T04:17:39;92602.81;;;4.86;46.83
46778;BME280;32536;47.128;8.746;2023-02-16T04:20:09;92602.91;;;4.90;46.69
46778;BME280;32536;47.128;8.746;2023-02-16T04:22:38;92610.53;;;4.91;46.79
46778;BME280;32536;47.128;8.746;2023-02-16T04:25:05;92605.66;;;4.93;46.71
46778;BME280;32536;47.128;8.746;2023-02-16T04:27:32;92605.66;;;4.93;46.76
46778;BME280;32536;47.128;8.746;2023-02-16T04:29:59;92598.34;;;4.90;46.83
46778;BME280;32536;47.128;8.746;2023-02-16T04:32:25;92593.75;;;4.87;46.79
46778;BME280;32536;47.128;8.746;2023-02-16T04:34:52;92595.28;;;4.88;47.21
46778;BME280;32536;47.128;8.746;2023-02-16T04:37:19;92597.31;;;4.95;46.80
46778;BME280;32536;47.128;8.746;2023-02-16T04:39:46;92597.13;;;5.04;46.82
46778;BME280;32536;47.128;8.746;2023-02-16T04:42:13;92597.28;;;5.11;46.59
46778;BME280;32536;47.128;8.746;2023-02-16T04:44:39;92593.97;;;5.14;46.47
46778;BME280;32536;47.128;8.746;2023-02-16T04:47:06;92597.28;;;5.11;46.38
46778;BME280;32536;47.128;8.746;2023-02-16T04:49:33;92599.88;;;5.07;46.68
46778;BME280;32536;47.128;8.746;2023-02-16T04:52:00;92610.50;;;5.07;46.77
46778;BME280;32536;47.128;8.746;2023-02-16T04:54:30;92606.22;;;5.03;47.03
46778;BME280;32536;47.128;8.746;2023-02-16T04:56:57;92599.63;;;4.96;46.99
46778;BME280;32536;47.128;8.746;2023-02-16T04:59:24;92596.47;;;4.91;46.90
46778;BME280;32536;47.128;8.746;2023-02-16T05:01:51;92610.44;;;4.88;47.20
46778;BME280;32536;47.128;8.746;2023-02-16T05:04:18;92608.28;;;4.93;47.19
46778;BME280;32536;47.128;8.746;2023-02-16T05:06:45;92608.78;;;4.99;47.01
46778;BME280;32536;47.128;8.746;2023-02-16T05:09:12;92606.91;;;5.00;46.84
46778;BME280;32536;47.128;8.746;2023-02-16T05:11:38;92602.38;;;5.00;46.62
46778;BME280;32536;47.128;8.746;2023-02-16T05:14:26;92605.09;;;5.04;46.60
46778;BME280;32536;47.128;8.746;2023-02-16T05:17:08;92612.81;;;5.09;46.33
46778;BME280;32536;47.128;8.746;2023-02-16T05:19:36;92608.63;;;5.08;46.46
46778;BME280;32536;47.128;8.746;2023-02-16T05:22:04;92613.25;;;4.95;46.67
46778;BME280;32536;47.128;8.746;2023-02-16T05:24:30;92613.78;;;4.85;46.76
46778;BME280;32536;47.128;8.746;2023-02-16T05:27:00;92610.63;;;4.79;47.01
46778;BME280;32536;47.128;8.746;2023-02-16T05:29:28;92613.19;;;4.75;47.04
46778;BME280;32536;47.128;8.746;2023-02-16T05:31:55;92617.72;;;4.75;47.06
46778;BME280;32536;47.128;8.746;2023-02-16T05:34:22;92619.53;;;4.71;47.32
46778;BME280;32536;47.128;8.746;2023-02-16T05:36:49;92621.41;;;4.70;47.23
46778;BME280;32536;47.128;8.746;2023-02-16T05:39:16;92616.19;;;4.74;47.18
46778;BME280;32536;47.128;8.746;2023-02-16T05:41:43;92619.59;;;4.74;46.99
46778;BME280;32536;47.128;8.746;2023-02-16T05:44:10;92620.41;;;4.75;46.74
46778;BME280;32536;47.128;8.746;2023-02-16T05:46:38;92619.69;;;4.78;46.73
46778;BME280;32536;47.128;8.746;2023-02-16T05:49:22;92626.97;;;4.81;46.80
46778;BME280;32536;47.128;8.746;2023-02-16T05:51:48;92621.59;;;4.77;46.95
46778;BME280;32536;47.128;8.746;2023-02-16T05:54:15;92630.13;;;4.71;46.94
46778;BME280;32536;47.128;8.746;2023-02-16T05:56:44;92635.34;;;4.67;46.92
46778;BME280;32536;47.128;8.746;2023-02-16T05:59:12;92631.50;;;4.64;47.35
46778;BME280;32536;47.128;8.746;2023-02-16T06:01:40;92623.19;;;4.66;47.33
46778;BME280;32536;47.128;8.746;2023-02-16T06:04:08;92636.56;;;4.70;47.30
46778;BME280;32536;47.128;8.746;2023-02-16T06:06:37;92635.19;;;4.76;47.12
46778;BME280;32536;47.128;8.746;2023-02-16T06:09:05;92631.59;;;4.84;47.16
46778;BME280;32536;47.128;8.746;2023-02-16T06:11:33;92636.72;;;4.93;46.95
46778;BME280;32536;47.128;8.746;2023-02-16T06:14:19;92635.34;;;4.99;46.70
46778;BME280;32536;47.128;8.746;2023-02-16T06:16:48;92639.53;;;5.00;46.63
46778;BME280;32536;47.128;8.746;2023-02-16T06:19:17;92640.16;;;4.93;46.87
46778;BME280;32536;47.128;8.746;2023-02-16T06:21:45;92637.34;;;4.86;47.05
46778;BME280;32536;47.128;8.746;2023-02-16T06:24:12;92636.91;;;4.84;47.07
46778;BME280;32536;47.128;8.746;2023-02-16T06:26:40;92639.56;;;4.84;47.39
46778;BME280;32536;47.128;8.746;2023-02-16T06:29:07;92645.97;;;4.83;46.97
46778;BME280;32536;47.128;8.746;2023-02-16T06:31:34;92651.38;;;4.87;46.84
46778;BME280;32536;47.128;8.746;2023-02-16T06:34:01;92654.81;;;4.87;46.74
46778;BME280;32536;47.128;8.746;2023-02-16T06:36:28;92647.88;;;4.83;47.00
46778;BME280;32536;47.128;8.746;2023-02-16T06:38:55;92658.31;;;4.75;46.97
46778;BME280;32536;47.128;8.746;2023-02-16T06:41:22;92657.38;;;4.68;47.29
46778;BME280;32536;47.128;8.746;2023-02-16T06:44:07;92656.50;;;4.63;47.10
46778;BME280;32536;47.128;8.746;2023-02-16T06:46:36;92660.69;;;4.64;47.38
46778;BME280;32536;47.128;8.746;2023-02-16T06:49:25;92658.56;;;4.70;47.30
46778;BME280;32536;47.128;8.746;2023-02-16T06:51:52;92654.56;;;4.76;47.05
46778;BME280;32536;47.128;8.746;2023-02-16T06:54:19;92653.75;;;4.76;47.14
46778;BME280;32536;47.128;8.746;2023-02-16T06:56:46;92653.44;;;4.77;47.30
46778;BME280;32536;47.128;8.746;2023-02-16T06:59:12;92669.47;;;4.81;47.23
46778;BME280;32536;47.128;8.746;2023-02-16T07:01:39;92662.00;;;4.87;46.97
46778;BME280;32536;47.128;8.746;2023-02-16T07:04:06;92672.34;;;4.92;46.81
46778;BME280;32536;47.128;8.746;2023-02-16T07:06:33;92674.78;;;4.97;46.58
46778;BME280;32536;47.128;8.746;2023-02-16T07:09:00;92671.25;;;4.93;47.01
46778;BME280;32536;47.128;8.746;2023-02-16T07:11:27;92677.59;;;4.88;46.85
46778;BME280;32536;47.128;8.746;2023-02-16T07:13:54;92677.84;;;4.83;47.11
46778;BME280;32536;47.128;8.746;2023-02-16T07:16:20;92680.94;;;4.85;47.12
46778;BME280;32536;47.128;8.746;2023-02-16T07:18:47;92682.22;;;4.91;47.05
46778;BME280;32536;47.128;8.746;2023-02-16T07:21:14;92678.53;;;4.96;46.76
46778;BME280;32536;47.128;8.746;2023-02-16T07:23:41;92684.50;;;4.93;46.90
46778;BME280;32536;47.128;8.746;2023-02-16T07:26:08;92684.09;;;4.91;47.16
46778;BME280;32536;47.128;8.746;2023-02-16T07:28:35;92681.38;;;4.87;47.30
46778;BME280;32536;47.128;8.746;2023-02-16T07:31:10;92682.47;;;4.86;47.63
46778;BME280;32536;47.128;8.746;2023-02-16T07:33:38;92685.38;;;4.97;47.93
46778;BME280;32536;47.128;8.746;2023-02-16T07:36:07;92691.44;;;5.13;48.28
46778;BME280;32536;47.128;8.746;2023-02-16T07:38:34;92686.22;;;5.33;48.19
46778;BME280;32536;47.128;8.746;2023-02-16T07:41:02;92692.72;;;5.52;47.54
46778;BME280;32536;47.128;8.746;2023-02-16T07:43:28;92685.81;;;5.67;47.33
46778;BME280;32536;47.128;8.746;2023-02-16T07:45:55;92693.66;;;5.79;46.68
46778;BME280;32536;47.128;8.746;2023-02-16T07:48:22;92696.06;;;5.84;46.90
46778;BME280;32536;47.128;8.746;2023-02-16T07:50:49;92693.91;;;5.90;46.45
46778;BME280;32536;47.128;8.746;2023-02-16T07:53:15;92696.56;;;5.90;45.98
46778;BME280;32536;47.128;8.746;2023-02-16T07:55:43;92701.00;;;5.86;46.44
46778;BME280;32536;47.128;8.746;2023-02-16T07:58:11;92700.94;;;5.82;46.37
46778;BME280;32536;47.128;8.746;2023-02-16T08:01:05;92691.78;;;5.80;46.46
46778;BME280;32536;47.128;8.746;2023-02-16T08:03:36;92692.06;;;5.74;46.42
46778;BME280;32536;47.128;8.746;2023-02-16T08:06:03;92687.44;;;5.71;46.84
46778;BME280;32536;47.128;8.746;2023-02-16T08:08:31;92686.66;;;5.71;46.65
46778;BME280;32536;47.128;8.746;2023-02-16T08:10:58;92689.38;;;5.74;46.72
46778;BME280;32536;47.128;8.746;2023-02-16T08:13:24;92693.66;;;5.79;46.97
46778;BME280;32536;47.128;8.746;2023-02-16T08:15:51;92687.66;;;5.82;46.44
46778;BME280;32536;47.128;8.746;2023-02-16T08:18:18;92684.59;;;5.80;46.55
46778;BME280;32536;47.128;8.746;2023-02-16T08:20:44;92692.47;;;5.76;47.06
46778;BME280;32536;47.128;8.746;2023-02-16T08:23:11;92696.25;;;5.75;46.59
46778;BME280;32536;47.128;8.746;2023-02-16T08:25:38;92695.50;;;5.75;47.05
46778;BME280;32536;47.128;8.746;2023-02-16T08:28:05;92695.75;;;5.70;47.13
46778;BME280;32536;47.128;8.746;2023-02-16T08:30:32;92688.56;;;5.70;47.37
46778;BME280;32536;47.128;8.746;2023-02-16T08:32:59;92693.00;;;5.66;46.84
46778;BME280;32536;47.128;8.746;2023-02-16T08:35:27;92689.59;;;5.66;46.87
46778;BME280;32536;47.128;8.746;2023-02-16T08:38:00;92673.63;;;5.66;47.23
46778;BME280;32536;47.128;8.746;2023-02-16T08:40:28;92691.63;;;5.72;47.29
46778;BME280;32536;47.128;8.746;2023-02-16T08:42:56;92687.91;;;5.77;46.94
46778;BME280;32536;47.128;8.746;2023-02-16T08:45:22;92688.78;;;5.81;46.74
46778;BME280;32536;47.128;8.746;2023-02-16T08:47:50;92684.72;;;5.87;47.17
46778;BME280;32536;47.128;8.746;2023-02-16T08:50:18;92686.34;;;5.92;46.96
46778;BME280;32536;47.128;8.746;2023-02-16T08:52:44;92680.75;;;5.97;47.01
46778;BME280;32536;47.128;8.746;2023-02-16T08:55:11;92678.59;;;6.03;47.08
46778;BME280;32536;47.128;8.746;2023-02-16T08:57:38;92681.41;;;6.10;46.97
46778;BME280;32536;47.128;8.746;2023-02-16T09:00:05;92680.00;;;6.16;46.70
46778;BME280;32536;47.128;8.746;2023-02-16T09:02:51;92681.31;;;6.26;46.78
46778;BME280;32536;47.128;8.746;2023-02-16T09:05:18;92689.81;;;6.32;46.67
46778;BME280;32536;47.128;8.746;2023-02-16T09:07:45;92687.28;;;6.39;46.63
46778;BME280;32536;47.128;8.746;2023-02-16T09:10:13;92686.22;;;6.44;47.33
46778;BME280;32536;47.128;8.746;2023-02-16T09:12:40;92693.56;;;6.50;46.47
46778;BME280;32536;47.128;8.746;2023-02-16T09:15:08;92686.50;;;6.58;46.72
46778;BME280;32536;47.128;8.746;2023-02-16T09:17:36;92698.03;;;6.66;46.70
46778;BME280;32536;47.128;8.746;2023-02-16T09:20:03;92701.94;;;6.72;46.45
46778;BME280;32536;47.128;8.746;2023-02-16T09:22:30;92694.09;;;6.79;46.57
46778;BME280;32536;47.128;8.746;2023-02-16T09:24:57;92691.19;;;6.88;46.80
46778;BME280;32536;47.128;8.746;2023-02-16T09:27:24;92698.94;;;6.97;46.79
46778;BME280;32536;47.128;8.746;2023-02-16T09:29:52;92696.47;;;7.08;46.51
46778;BME280;32536;47.128;8.746;2023-02-16T09:32:19;92697.38;;;7.15;46.50
46778;BME280;32536;47.128;8.746;2023-02-16T09:34:45;92700.47;;;7.21;46.37
46778;BME280;32536;47.128;8.746;2023-02-16T09:37:14;92700.19;;;7.26;47.06
46778;BME280;32536;47.128;8.746;2023-02-16T09:39:41;92705.63;;;7.33;47.23
46778;BME280;32536;47.128;8.746;2023-02-16T09:42:46;92694.69;;;7.39;46.10
46778;BME280;32536;47.128;8.746;2023-02-16T09:45:27;92691.03;;;7.50;46.98
46778;BME280;32536;47.128;8.746;2023-02-16T09:47:55;92687.34;;;7.59;46.97
46778;BME280;32536;47.128;8.746;2023-02-16T09:50:26;92684.84;;;7.69;47.13
46778;BME280;32536;47.128;8.746;2023-02-16T09:53:16;92686.47;;;7.78;46.15
46778;BME280;32536;47.128;8.746;2023-02-16T09:56:03;92685.09;;;7.88;46.57
46778;BME280;32536;47.128;8.746;2023-02-16T09:59:00;92692.06;;;7.99;46.56
46778;BME280;32536;47.128;8.746;2023-02-16T10:04:44;92689.59;;;8.14;45.94
46778;BME280;32536;47.128;8.746;2023-02-16T10:07:49;92677.88;;;8.22;46.01
46778;BME280;32536;47.128;8.746;2023-02-16T10:13:21;92685.66;;;8.34;46.48
46778;BME280;32536;47.128;8.746;2023-02-16T10:15:58;92686.50;;;8.42;46.46
46778;BME280;32536;47.128;8.746;2023-02-16T10:18:33;92684.31;;;8.48;46.23
46778;BME280;32536;47.128;8.746;2023-02-16T10:21:11;92681.72;;;8.55;46.71
46778;BME280;32536;47.128;8.746;2023-02-16T10:24:01;92679.13;;;8.62;46.12
46778;BME280;32536;47.128;8.746;2023-02-16T10:27:01;92684.16;;;8.71;46.14
46778;BME280;32536;47.128;8.746;2023-02-16T10:29:33;92678.50;;;8.80;46.86
46778;BME280;32536;47.128;8.746;2023-02-16T10:34:45;92670.25;;;8.92;46.35
46778;BME280;32536;47.128;8.746;2023-02-16T10:37:46;92668.81;;;9.02;45.75
46778;BME280;32536;47.128;8.746;2023-02-16T10:46:01;92671.31;;;9.29;46.75
46778;BME280;32536;47.128;8.746;2023-02-16T10:48:29;92672.53;;;9.35;46.81
46778;BME280;32536;47.128;8.746;2023-02-16T10:53:43;92668.03;;;9.50;46.42
46778;BME280;32536;47.128;8.746;2023-02-16T10:59:20;92673.50;;;9.68;45.54
46778;BME280;32536;47.128;8.746;2023-02-16T11:01:54;92678.94;;;9.79;46.07
46778;BME280;32536;47.128;8.746;2023-02-16T11:04:38;92670.53;;;9.84;46.64
46778;BME280;32536;47.128;8.746;2023-02-16T11:07:17;92667.88;;;9.84;45.38
46778;BME280;32536;47.128;8.746;2023-02-16T11:09:48;92653.34;;;9.85;46.00
46778;BME280;32536;47.128;8.746;2023-02-16T11:17:51;92651.53;;;10.07;46.04
46778;BME280;32536;47.128;8.746;2023-02-16T11:25:39;92648.97;;;10.29;45.91
46778;BME280;32536;47.128;8.746;2023-02-16T11:28:07;92640.59;;;10.38;45.52
46778;BME280;32536;47.128;8.746;2023-02-16T11:30:38;92640.22;;;10.43;45.43
46778;BME280;32536;47.128;8.746;2023-02-16T11:33:24;92639.09;;;10.51;44.29
46778;BME280;32536;47.128;8.746;2023-02-16T11:35:52;92634.13;;;10.64;46.10
46778;BME280;32536;47.128;8.746;2023-02-16T11:40:55;92626.91;;;10.79;45.46
46778;BME280;32536;47.128;8.746;2023-02-16T11:43:26;92625.00;;;10.83;45.49
46778;BME280;32536;47.128;8.746;2023-02-16T11:46:17;92621.56;;;10.94;44.92
46778;BME280;32536;47.128;8.746;2023-02-16T11:48:45;92616.19;;;11.04;45.53
46778;BME280;32536;47.128;8.746;2023-02-16T11:51:14;92622.34;;;11.09;45.11
46778;BME280;32536;47.128;8.746;2023-02-16T11:53:59;92620.03;;;11.07;43.67
46778;BME280;32536;47.128;8.746;2023-02-16T11:56:32;92614.28;;;11.12;44.52
46778;BME280;32536;47.128;8.746;2023-02-16T11:59:17;92618.13;;;11.18;44.82
46778;BME280;32536;47.128;8.746;2023-02-16T12:08:02;92607.75;;;11.35;43.79
46778;BME280;32536;47.128;8.746;2023-02-16T12:20:02;92600.03;;;11.69;41.93
46778;BME280;32536;47.128;8.746;2023-02-16T12:22:48;92592.72;;;11.77;37.38
46778;BME280;32536;47.128;8.746;2023-02-16T12:25:41;92597.28;;;11.88;39.70
46778;BME280;32536;47.128;8.746;2023-02-16T12:29:01;92594.97;;;12.04;43.20
46778;BME280;32536;47.128;8.746;2023-02-16T12:31:47;92599.16;;;12.12;37.26
46778;BME280;32536;47.128;8.746;2023-02-16T12:37:53;92590.66;;;12.28;29.94
46778;BME280;32536;47.128;8.746;2023-02-16T12:43:37;92588.63;;;12.51;42.36
46778;BME280;32536;47.128;8.746;2023-02-16T12:46:44;92576.69;;;12.55;29.70
46778;BME280;32536;47.128;8.746;2023-02-16T12:52:37;92574.28;;;12.68;33.63
46778;BME280;32536;47.128;8.746;2023-02-16T12:57:56;92571.13;;;12.88;41.62
46778;BME280;32536;47.128;8.746;2023-02-16T13:00:39;92571.41;;;12.97;41.36
46778;BME280;32536;47.128;8.746;2023-02-16T13:06:25;92573.97;;;13.15;42.51
46778;BME280;32536;47.128;8.746;2023-02-16T13:09:40;92569.66;;;13.25;39.47
46778;BME280;32536;47.128;8.746;2023-02-16T13:12:31;92564.63;;;13.31;40.42
46778;BME280;32536;47.128;8.746;2023-02-16T13:15:12;92573.00;;;13.40;40.77
46778;BME280;32536;47.128;8.746;2023-02-16T13:17:49;92563.69;;;13.48;42.46
46778;BME280;32536;47.128;8.746;2023-02-16T13:20:23;92563.66;;;13.52;39.68
46778;BME280;32536;47.128;8.746;2023-02-16T13:29:10;92554.22;;;13.74;40.38
46778;BME280;32536;47.128;8.746;2023-02-16T13:35:07;92550.50;;;13.96;41.37
46778;BME280;32536;47.128;8.746;2023-02-16T13:43:39;92542.50;;;14.19;39.84
46778;BME280;32536;47.128;8.746;2023-02-16T13:46:26;92541.72;;;14.22;30.04
46778;BME280;32536;47.128;8.746;2023-02-16T13:48:56;92535.81;;;14.31;37.81
46778;BME280;32536;47.128;8.746;2023-02-16T13:51:26;92537.72;;;14.34;34.65
46778;BME280;32536;47.128;8.746;2023-02-16T13:53:59;92532.22;;;14.41;35.71
46778;BME280;32536;47.128;8.746;2023-02-16T13:58:58;92530.56;;;14.51;36.42
46778;BME280;32536;47.128;8.746;2023-02-16T14:01:50;92531.16;;;14.63;36.83
46778;BME280;32536;47.128;8.746;2023-02-16T14:22:32;92509.69;;;15.07;30.58
46778;BME280;32536;47.128;8.746;2023-02-16T14:30:33;92513.66;;;15.22;32.14
46778;BME280;32536;47.128;8.746;2023-02-16T14:36:03;92506.84;;;15.37;36.25
46778;BME280;32536;47.128;8.746;2023-02-16T14:38:49;92506.44;;;15.39;26.00
46778;BME280;32536;47.128;8.746;2023-02-16T14:44:26;92509.41;;;15.45;32.85
46778;BME280;32536;47.128;8.746;2023-02-16T14:47:27;92507.50;;;15.45;26.57
46778;BME280;32536;47.128;8.746;2023-02-16T14:53:20;92509.84;;;15.43;29.51
46778;BME280;32536;47.128;8.746;2023-02-16T14:55:59;92518.00;;;15.40;34.02
46778;BME280;32536;47.128;8.746;2023-02-16T15:01:37;92514.84;;;15.21;30.28
46778;BME280;32536;47.128;8.746;2023-02-16T15:04:08;92516.09;;;15.16;35.39
46778;BME280;32536;47.128;8.746;2023-02-16T15:06:45;92519.72;;;15.06;33.42
46778;BME280;32536;47.128;8.746;2023-02-16T15:09:20;92516.75;;;15.00;36.80
46778;BME280;32536;47.128;8.746;2023-02-16T15:11:55;92512.97;;;14.94;37.81
46778;BME280;32536;47.128;8.746;2023-02-16T15:17:34;92524.34;;;14.82;37.02
46778;BME280;32536;47.128;8.746;2023-02-16T15:20:27;92523.28;;;14.76;36.86
46778;BME280;32536;47.128;8.746;2023-02-16T15:23:05;92523.41;;;14.68;36.23
46778;BME280;32536;47.128;8.746;2023-02-16T15:25:41;92517.31;;;14.61;38.08
46778;BME280;32536;47.128;8.746;2023-02-16T15:36:09;92517.03;;;14.24;37.07
46778;BME280;32536;47.128;8.746;2023-02-16T15:38:40;92523.97;;;14.25;38.92
46778;BME280;32536;47.128;8.746;2023-02-16T15:43:57;92530.19;;;14.18;38.61
46778;BME280;32536;47.128;8.746;2023-02-16T15:46:38;92523.78;;;14.08;38.22
46778;BME280;32536;47.128;8.746;2023-02-16T15:49:18;92523.84;;;14.05;38.24
46778;BME280;32536;47.128;8.746;2023-02-16T15:51:47;92522.31;;;14.04;39.14
46778;BME280;32536;47.128;8.746;2023-02-16T15:54:28;92524.69;;;13.98;34.43
46778;BME280;32536;47.128;8.746;2023-02-16T15:59:39;92537.53;;;13.87;39.22
46778;BME280;32536;47.128;8.746;2023-02-16T16:02:13;92536.03;;;13.82;39.34
46778;BME280;32536;47.128;8.746;2023-02-16T16:04:46;92534.97;;;13.76;39.20
46778;BME280;32536;47.128;8.746;2023-02-16T16:07:27;92536.53;;;13.73;38.32
46778;BME280;32536;47.128;8.746;2023-02-16T16:09:56;92539.59;;;13.72;39.11
46778;BME280;32536;47.128;8.746;2023-02-16T16:12:23;92540.03;;;13.67;39.37
46778;BME280;32536;47.128;8.746;2023-02-16T16:14:57;92544.34;;;13.60;39.41
46778;BME280;32536;47.128;8.746;2023-02-16T16:17:30;92539.78;;;13.57;38.52
46778;BME280;32536;47.128;8.746;2023-02-16T16:22:59;92548.72;;;13.47;38.76
46778;BME280;32536;47.128;8.746;2023-02-16T16:28:01;92549.19;;;13.38;39.78
46778;BME280;32536;47.128;8.746;2023-02-16T16:30:31;92553.84;;;13.31;39.12
46778;BME280;32536;47.128;8.746;2023-02-16T16:33:08;92553.94;;;13.20;38.75
46778;BME280;32536;47.128;8.746;2023-02-16T16:35:45;92554.41;;;13.11;39.07
46778;BME280;32536;47.128;8.746;2023-02-16T16:38:26;92555.97;;;13.05;38.72
46778;BME280;32536;47.128;8.746;2023-02-16T16:41:00;92557.22;;;12.96;39.02
46778;BME280;32536;47.128;8.746;2023-02-16T16:43:36;92556.91;;;12.84;38.13
46778;BME280;32536;47.128;8.746;2023-02-16T16:46:18;92565.47;;;12.71;38.61